sensor_id;sensor_type;location;lat;lon;timestamp;P1;durP1;ratioP1;P2;durP2;ratioP2
76640;SDS011;65538;50.798;6.064;2024-01-27T00:00:56;13.10;;;3.90;;
76640;SDS011;65538;50.798;6.064;2024-01-27T00:03:22;14.20;;;2.90;;
76640;SDS011;65538;50.798;6.064;2024-01-27T00:05:47;16.13;;;2.87;;
76640;SDS011;65538;50.798;6.064;2024-01-27T00:08:12;12.43;;;3.17;;
76640;SDS011;65538;50.798;6.064;2024-01-27T00:10:37;10.90;;;2.93;;
76640;SDS011;65538;50.798;6.064;2024-01-27T00:13:02;11.27;;;2.73;;
76640;SDS011;65538;50.798;6.064;2024-01-27T00:15:28;17.27;;;3.93;;
76640;SDS011;65538;50.798;6.064;2024-01-27T00:17:53;18.23;;;3.47;;
76640;SDS011;65538;50.798;6.064;2024-01-27T00:20:18;9.90;;;2.97;;
76640;SDS011;65538;50.798;6.064;2024-01-27T00:22:43;9.87;;;2.70;;
76640;SDS011;65538;50.798;6.064;2024-01-27T00:25:08;16.17;;;3.23;;
76640;SDS011;65538;50.798;6.064;2024-01-27T00:27:34;14.20;;;3.07;;
76640;SDS011;65538;50.798;6.064;2024-01-27T00:29:59;17.50;;;3.20;;
76640;SDS011;65538;50.798;6.064;2024-01-27T00:32:24;11.60;;;2.90;;
76640;SDS011;65538;50.798;6.064;2024-01-27T00:34:49;16.30;;;3.27;;
76640;SDS011;65538;50.798;6.064;2024-01-27T00:37:15;13.80;;;2.95;;
76640;SDS011;65538;50.798;6.064;2024-01-27T00:39:40;13.27;;;3.27;;
76640;SDS011;65538;50.798;6.064;2024-01-27T00:42:05;10.75;;;3.40;;
76640;SDS011;65538;50.798;6.064;2024-01-27T00:44:30;17.70;;;3.20;;
76640;SDS011;65538;50.798;6.064;2024-01-27T00:46:56;14.80;;;3.53;;
76640;SDS011;65538;50.798;6.064;2024-01-27T00:49:21;10.27;;;2.80;;
76640;SDS011;65538;50.798;6.064;2024-01-27T00:51:46;13.17;;;2.93;;
76640;SDS011;65538;50.798;6.064;2024-01-27T00:54:11;11.50;;;3.00;;
76640;SDS011;65538;50.798;6.064;2024-01-27T00:56:36;11.03;;;2.87;;
76640;SDS011;65538;50.798;6.064;2024-01-27T00:59:02;14.13;;;2.80;;
76640;SDS011;65538;50.798;6.064;2024-01-27T01:01:27;12.90;;;3.30;;
76640;SDS011;65538;50.798;6.064;2024-01-27T01:03:52;15.70;;;2.80;;
76640;SDS011;65538;50.798;6.064;2024-01-27T01:06:17;12.40;;;3.40;;
76640;SDS011;65538;50.798;6.064;2024-01-27T01:08:42;14.27;;;3.67;;
76640;SDS011;65538;50.798;6.064;2024-01-27T01:11:08;12.87;;;2.73;;
76640;SDS011;65538;50.798;6.064;2024-01-27T01:13:34;11.50;;;2.28;;
76640;SDS011;65538;50.798;6.064;2024-01-27T01:15:59;17.27;;;2.90;;
76640;SDS011;65538;50.798;6.064;2024-01-27T01:18:24;14.10;;;3.57;;
76640;SDS011;65538;50.798;6.064;2024-01-27T01:20:49;7.67;;;2.43;;
76640;SDS011;65538;50.798;6.064;2024-01-27T01:23:15;9.47;;;2.60;;
76640;SDS011;65538;50.798;6.064;2024-01-27T01:25:40;14.70;;;2.80;;
76640;SDS011;65538;50.798;6.064;2024-01-27T01:28:05;8.77;;;2.60;;
76640;SDS011;65538;50.798;6.064;2024-01-27T01:30:30;14.33;;;3.47;;
76640;SDS011;65538;50.798;6.064;2024-01-27T01:32:55;9.77;;;3.00;;
76640;SDS011;65538;50.798;6.064;2024-01-27T01:35:21;9.00;;;2.57;;
76640;SDS011;65538;50.798;6.064;2024-01-27T01:37:46;13.37;;;2.63;;
76640;SDS011;65538;50.798;6.064;2024-01-27T01:40:19;9.38;;;2.53;;
76640;SDS011;65538;50.798;6.064;2024-01-27T01:42:49;14.57;;;3.33;;
76640;SDS011;65538;50.798;6.064;2024-01-27T01:45:14;10.50;;;2.40;;
76640;SDS011;65538;50.798;6.064;2024-01-27T01:47:40;12.27;;;2.83;;
76640;SDS011;65538;50.798;6.064;2024-01-27T01:50:05;12.70;;;2.83;;
76640;SDS011;65538;50.798;6.064;2024-01-27T01:52:31;9.07;;;2.60;;
76640;SDS011;65538;50.798;6.064;2024-01-27T01:54:56;13.23;;;2.93;;
76640;SDS011;65538;50.798;6.064;2024-01-27T01:57:21;16.77;;;3.30;;
76640;SDS011;65538;50.798;6.064;2024-01-27T01:59:46;12.60;;;2.87;;
76640;SDS011;65538;50.798;6.064;2024-01-27T02:02:12;14.75;;;3.00;;
76640;SDS011;65538;50.798;6.064;2024-01-27T02:04:41;7.78;;;2.60;;
76640;SDS011;65538;50.798;6.064;2024-01-27T02:07:07;9.25;;;2.85;;
76640;SDS011;65538;50.798;6.064;2024-01-27T02:09:32;13.20;;;3.10;;
76640;SDS011;65538;50.798;6.064;2024-01-27T02:11:57;8.00;;;2.37;;
76640;SDS011;65538;50.798;6.064;2024-01-27T02:14:22;12.10;;;3.47;;
76640;SDS011;65538;50.798;6.064;2024-01-27T02:16:50;14.93;;;3.15;;
76640;SDS011;65538;50.798;6.064;2024-01-27T02:19:15;15.53;;;2.63;;
76640;SDS011;65538;50.798;6.064;2024-01-27T02:21:40;17.90;;;3.60;;
76640;SDS011;65538;50.798;6.064;2024-01-27T02:24:06;13.30;;;2.90;;
76640;SDS011;65538;50.798;6.064;2024-01-27T02:26:32;11.43;;;2.55;;
76640;SDS011;65538;50.798;6.064;2024-01-27T02:28:57;10.63;;;2.80;;
76640;SDS011;65538;50.798;6.064;2024-01-27T02:31:22;12.67;;;3.00;;
76640;SDS011;65538;50.798;6.064;2024-01-27T02:33:47;12.57;;;2.80;;
76640;SDS011;65538;50.798;6.064;2024-01-27T02:36:12;11.13;;;3.40;;
76640;SDS011;65538;50.798;6.064;2024-01-27T02:38:38;17.27;;;3.33;;
76640;SDS011;65538;50.798;6.064;2024-01-27T02:41:03;8.07;;;2.83;;
76640;SDS011;65538;50.798;6.064;2024-01-27T02:43:28;14.17;;;2.70;;
76640;SDS011;65538;50.798;6.064;2024-01-27T02:45:53;10.17;;;3.17;;
76640;SDS011;65538;50.798;6.064;2024-01-27T02:48:18;11.57;;;3.00;;
76640;SDS011;65538;50.798;6.064;2024-01-27T02:50:44;8.10;;;3.00;;
76640;SDS011;65538;50.798;6.064;2024-01-27T02:53:09;11.53;;;3.03;;
76640;SDS011;65538;50.798;6.064;2024-01-27T02:55:34;9.53;;;2.93;;
76640;SDS011;65538;50.798;6.064;2024-01-27T02:57:59;13.30;;;2.80;;
76640;SDS011;65538;50.798;6.064;2024-01-27T03:00:24;15.13;;;3.00;;
76640;SDS011;65538;50.798;6.064;2024-01-27T03:02:50;9.73;;;2.88;;
76640;SDS011;65538;50.798;6.064;2024-01-27T03:05:15;14.77;;;2.80;;
76640;SDS011;65538;50.798;6.064;2024-01-27T03:07:40;8.43;;;2.80;;
76640;SDS011;65538;50.798;6.064;2024-01-27T03:10:06;14.77;;;3.08;;
76640;SDS011;65538;50.798;6.064;2024-01-27T03:12:31;9.87;;;2.50;;
76640;SDS011;65538;50.798;6.064;2024-01-27T03:14:57;11.38;;;2.70;;
76640;SDS011;65538;50.798;6.064;2024-01-27T03:17:22;12.00;;;2.57;;
76640;SDS011;65538;50.798;6.064;2024-01-27T03:19:48;9.43;;;2.57;;
76640;SDS011;65538;50.798;6.064;2024-01-27T03:22:13;12.23;;;2.90;;
76640;SDS011;65538;50.798;6.064;2024-01-27T03:24:38;14.07;;;3.03;;
76640;SDS011;65538;50.798;6.064;2024-01-27T03:27:03;8.47;;;2.53;;
76640;SDS011;65538;50.798;6.064;2024-01-27T03:29:28;12.83;;;2.83;;
76640;SDS011;65538;50.798;6.064;2024-01-27T03:31:54;13.00;;;3.10;;
76640;SDS011;65538;50.798;6.064;2024-01-27T03:34:19;12.43;;;2.73;;
76640;SDS011;65538;50.798;6.064;2024-01-27T03:36:49;10.65;;;2.67;;
76640;SDS011;65538;50.798;6.064;2024-01-27T03:39:14;13.60;;;3.40;;
76640;SDS011;65538;50.798;6.064;2024-01-27T03:41:40;15.73;;;3.50;;
76640;SDS011;65538;50.798;6.064;2024-01-27T03:44:05;10.37;;;2.90;;
76640;SDS011;65538;50.798;6.064;2024-01-27T03:46:30;14.27;;;3.10;;
76640;SDS011;65538;50.798;6.064;2024-01-27T03:48:55;11.47;;;2.97;;
76640;SDS011;65538;50.798;6.064;2024-01-27T03:51:21;11.95;;;3.05;;
76640;SDS011;65538;50.798;6.064;2024-01-27T03:53:46;14.00;;;3.60;;
76640;SDS011;65538;50.798;6.064;2024-01-27T03:56:12;8.07;;;2.23;;
76640;SDS011;65538;50.798;6.064;2024-01-27T03:58:37;20.15;;;3.03;;
76640;SDS011;65538;50.798;6.064;2024-01-27T04:01:03;9.70;;;2.60;;
76640;SDS011;65538;50.798;6.064;2024-01-27T04:03:29;10.45;;;3.10;;
76640;SDS011;65538;50.798;6.064;2024-01-27T04:05:54;11.30;;;2.90;;
76640;SDS011;65538;50.798;6.064;2024-01-27T04:08:22;9.63;;;3.17;;
76640;SDS011;65538;50.798;6.064;2024-01-27T04:10:47;11.93;;;2.67;;
76640;SDS011;65538;50.798;6.064;2024-01-27T04:13:13;11.10;;;2.67;;
76640;SDS011;65538;50.798;6.064;2024-01-27T04:15:38;9.20;;;2.73;;
76640;SDS011;65538;50.798;6.064;2024-01-27T04:18:06;11.20;;;2.97;;
76640;SDS011;65538;50.798;6.064;2024-01-27T04:20:33;11.90;;;2.83;;
76640;SDS011;65538;50.798;6.064;2024-01-27T04:22:58;11.30;;;2.97;;
76640;SDS011;65538;50.798;6.064;2024-01-27T04:25:23;9.93;;;2.60;;
76640;SDS011;65538;50.798;6.064;2024-01-27T04:27:48;15.57;;;2.80;;
76640;SDS011;65538;50.798;6.064;2024-01-27T04:30:14;11.90;;;2.27;;
76640;SDS011;65538;50.798;6.064;2024-01-27T04:32:39;9.37;;;2.47;;
76640;SDS011;65538;50.798;6.064;2024-01-27T04:35:06;7.97;;;3.00;;
76640;SDS011;65538;50.798;6.064;2024-01-27T04:37:33;11.95;;;2.90;;
76640;SDS011;65538;50.798;6.064;2024-01-27T04:39:58;10.77;;;2.90;;
76640;SDS011;65538;50.798;6.064;2024-01-27T04:42:23;8.43;;;2.57;;
76640;SDS011;65538;50.798;6.064;2024-01-27T04:44:48;10.43;;;2.80;;
76640;SDS011;65538;50.798;6.064;2024-01-27T04:47:13;9.17;;;2.53;;
76640;SDS011;65538;50.798;6.064;2024-01-27T04:49:39;7.77;;;2.43;;
76640;SDS011;65538;50.798;6.064;2024-01-27T04:52:04;9.77;;;2.83;;
76640;SDS011;65538;50.798;6.064;2024-01-27T04:54:29;8.37;;;2.90;;
76640;SDS011;65538;50.798;6.064;2024-01-27T04:56:54;12.70;;;4.77;;
76640;SDS011;65538;50.798;6.064;2024-01-27T04:59:19;8.30;;;2.97;;
76640;SDS011;65538;50.798;6.064;2024-01-27T05:01:45;11.10;;;2.70;;
76640;SDS011;65538;50.798;6.064;2024-01-27T05:04:10;14.20;;;4.47;;
76640;SDS011;65538;50.798;6.064;2024-01-27T05:06:36;14.05;;;3.13;;
76640;SDS011;65538;50.798;6.064;2024-01-27T05:09:01;8.03;;;3.20;;
76640;SDS011;65538;50.798;6.064;2024-01-27T05:11:29;12.80;;;2.87;;
76640;SDS011;65538;50.798;6.064;2024-01-27T05:13:56;13.30;;;3.50;;
76640;SDS011;65538;50.798;6.064;2024-01-27T05:16:21;17.77;;;3.87;;
76640;SDS011;65538;50.798;6.064;2024-01-27T05:18:46;13.87;;;3.03;;
76640;SDS011;65538;50.798;6.064;2024-01-27T05:21:11;12.00;;;2.83;;
76640;SDS011;65538;50.798;6.064;2024-01-27T05:23:36;9.23;;;3.10;;
76640;SDS011;65538;50.798;6.064;2024-01-27T05:26:01;11.00;;;2.87;;
76640;SDS011;65538;50.798;6.064;2024-01-27T05:28:27;9.83;;;3.00;;
76640;SDS011;65538;50.798;6.064;2024-01-27T05:30:52;8.53;;;2.53;;
76640;SDS011;65538;50.798;6.064;2024-01-27T05:33:17;11.13;;;3.27;;
76640;SDS011;65538;50.798;6.064;2024-01-27T05:35:42;15.53;;;3.40;;
76640;SDS011;65538;50.798;6.064;2024-01-27T05:38:08;10.93;;;2.53;;
76640;SDS011;65538;50.798;6.064;2024-01-27T05:40:33;11.20;;;3.13;;
76640;SDS011;65538;50.798;6.064;2024-01-27T05:42:58;10.67;;;3.23;;
76640;SDS011;65538;50.798;6.064;2024-01-27T05:45:23;11.40;;;3.33;;
76640;SDS011;65538;50.798;6.064;2024-01-27T05:47:49;9.73;;;3.10;;
76640;SDS011;65538;50.798;6.064;2024-01-27T05:50:14;16.17;;;3.00;;
76640;SDS011;65538;50.798;6.064;2024-01-27T05:52:39;14.80;;;3.00;;
76640;SDS011;65538;50.798;6.064;2024-01-27T05:55:04;21.07;;;3.77;;
76640;SDS011;65538;50.798;6.064;2024-01-27T05:57:31;9.68;;;2.88;;
76640;SDS011;65538;50.798;6.064;2024-01-27T05:59:57;16.97;;;3.23;;
76640;SDS011;65538;50.798;6.064;2024-01-27T06:02:22;9.77;;;2.33;;
76640;SDS011;65538;50.798;6.064;2024-01-27T06:04:47;10.37;;;3.30;;
76640;SDS011;65538;50.798;6.064;2024-01-27T06:07:12;15.27;;;3.00;;
76640;SDS011;65538;50.798;6.064;2024-01-27T06:09:37;15.00;;;3.57;;
76640;SDS011;65538;50.798;6.064;2024-01-27T06:12:03;13.33;;;3.40;;
76640;SDS011;65538;50.798;6.064;2024-01-27T06:14:28;10.88;;;3.22;;
76640;SDS011;65538;50.798;6.064;2024-01-27T06:16:53;11.97;;;3.43;;
76640;SDS011;65538;50.798;6.064;2024-01-27T06:19:18;16.50;;;3.00;;
76640;SDS011;65538;50.798;6.064;2024-01-27T06:21:44;18.03;;;3.90;;
76640;SDS011;65538;50.798;6.064;2024-01-27T06:24:10;7.23;;;3.33;;
76640;SDS011;65538;50.798;6.064;2024-01-27T06:26:35;13.27;;;3.70;;
76640;SDS011;65538;50.798;6.064;2024-01-27T06:29:01;19.73;;;3.90;;
76640;SDS011;65538;50.798;6.064;2024-01-27T06:31:27;16.00;;;2.97;;
76640;SDS011;65538;50.798;6.064;2024-01-27T06:33:52;12.73;;;3.70;;
76640;SDS011;65538;50.798;6.064;2024-01-27T06:36:17;11.13;;;2.77;;
76640;SDS011;65538;50.798;6.064;2024-01-27T06:38:43;11.87;;;3.00;;
76640;SDS011;65538;50.798;6.064;2024-01-27T06:41:08;17.73;;;3.40;;
76640;SDS011;65538;50.798;6.064;2024-01-27T06:43:34;8.80;;;2.88;;
76640;SDS011;65538;50.798;6.064;2024-01-27T06:45:59;11.00;;;3.03;;
76640;SDS011;65538;50.798;6.064;2024-01-27T06:48:25;14.27;;;3.80;;
76640;SDS011;65538;50.798;6.064;2024-01-27T06:50:51;11.60;;;3.00;;
76640;SDS011;65538;50.798;6.064;2024-01-27T06:53:18;20.70;;;3.15;;
76640;SDS011;65538;50.798;6.064;2024-01-27T06:55:43;13.13;;;3.88;;
76640;SDS011;65538;50.798;6.064;2024-01-27T06:58:08;19.67;;;3.17;;
76640;SDS011;65538;50.798;6.064;2024-01-27T07:00:33;10.50;;;2.90;;
76640;SDS011;65538;50.798;6.064;2024-01-27T07:02:58;14.73;;;3.63;;
76640;SDS011;65538;50.798;6.064;2024-01-27T07:05:24;11.77;;;2.80;;
76640;SDS011;65538;50.798;6.064;2024-01-27T07:07:49;15.13;;;2.63;;
76640;SDS011;65538;50.798;6.064;2024-01-27T07:10:14;15.25;;;3.33;;
76640;SDS011;65538;50.798;6.064;2024-01-27T07:12:40;14.17;;;3.10;;
76640;SDS011;65538;50.798;6.064;2024-01-27T07:15:05;13.33;;;2.70;;
76640;SDS011;65538;50.798;6.064;2024-01-27T07:17:30;15.02;;;2.72;;
76640;SDS011;65538;50.798;6.064;2024-01-27T07:19:56;15.23;;;3.53;;
76640;SDS011;65538;50.798;6.064;2024-01-27T07:22:22;14.93;;;2.88;;
76640;SDS011;65538;50.798;6.064;2024-01-27T07:24:47;14.63;;;3.10;;
76640;SDS011;65538;50.798;6.064;2024-01-27T07:27:16;14.07;;;2.45;;
76640;SDS011;65538;50.798;6.064;2024-01-27T07:29:41;10.30;;;3.10;;
76640;SDS011;65538;50.798;6.064;2024-01-27T07:32:06;12.43;;;3.30;;
76640;SDS011;65538;50.798;6.064;2024-01-27T07:34:33;12.80;;;3.30;;
76640;SDS011;65538;50.798;6.064;2024-01-27T07:36:58;14.37;;;3.07;;
76640;SDS011;65538;50.798;6.064;2024-01-27T07:39:23;9.53;;;2.57;;
76640;SDS011;65538;50.798;6.064;2024-01-27T07:41:49;12.80;;;3.30;;
76640;SDS011;65538;50.798;6.064;2024-01-27T07:44:14;11.23;;;2.77;;
76640;SDS011;65538;50.798;6.064;2024-01-27T07:46:39;15.18;;;2.58;;
76640;SDS011;65538;50.798;6.064;2024-01-27T07:49:08;13.02;;;3.03;;
76640;SDS011;65538;50.798;6.064;2024-01-27T07:51:33;14.20;;;3.42;;
76640;SDS011;65538;50.798;6.064;2024-01-27T07:53:59;13.38;;;3.80;;
76640;SDS011;65538;50.798;6.064;2024-01-27T07:56:24;14.80;;;3.45;;
76640;SDS011;65538;50.798;6.064;2024-01-27T07:58:50;8.93;;;2.10;;
76640;SDS011;65538;50.798;6.064;2024-01-27T08:01:15;8.80;;;1.47;;
76640;SDS011;65538;50.798;6.064;2024-01-27T08:03:41;9.55;;;2.20;;
76640;SDS011;65538;50.798;6.064;2024-01-27T08:06:06;10.77;;;2.80;;
76640;SDS011;65538;50.798;6.064;2024-01-27T08:08:34;5.60;;;1.30;;
76640;SDS011;65538;50.798;6.064;2024-01-27T08:10:59;8.30;;;2.47;;
76640;SDS011;65538;50.798;6.064;2024-01-27T08:13:24;6.97;;;1.40;;
76640;SDS011;65538;50.798;6.064;2024-01-27T08:15:49;8.93;;;2.00;;
76640;SDS011;65538;50.798;6.064;2024-01-27T08:18:15;5.60;;;1.90;;
76640;SDS011;65538;50.798;6.064;2024-01-27T08:20:40;13.40;;;3.07;;
76640;SDS011;65538;50.798;6.064;2024-01-27T08:23:05;9.27;;;1.97;;
76640;SDS011;65538;50.798;6.064;2024-01-27T08:25:30;9.77;;;2.37;;
76640;SDS011;65538;50.798;6.064;2024-01-27T08:27:55;13.07;;;2.37;;
76640;SDS011;65538;50.798;6.064;2024-01-27T08:30:20;9.70;;;1.93;;
76640;SDS011;65538;50.798;6.064;2024-01-27T08:32:46;11.82;;;2.38;;
76640;SDS011;65538;50.798;6.064;2024-01-27T08:35:11;12.17;;;2.20;;
76640;SDS011;65538;50.798;6.064;2024-01-27T08:37:36;9.50;;;2.10;;
76640;SDS011;65538;50.798;6.064;2024-01-27T08:40:04;9.70;;;2.13;;
76640;SDS011;65538;50.798;6.064;2024-01-27T08:42:30;13.70;;;2.40;;
76640;SDS011;65538;50.798;6.064;2024-01-27T08:44:55;12.03;;;1.90;;
76640;SDS011;65538;50.798;6.064;2024-01-27T08:47:20;10.30;;;2.07;;
76640;SDS011;65538;50.798;6.064;2024-01-27T08:49:46;9.35;;;1.92;;
76640;SDS011;65538;50.798;6.064;2024-01-27T08:52:12;12.23;;;2.20;;
76640;SDS011;65538;50.798;6.064;2024-01-27T08:54:37;12.07;;;2.13;;
76640;SDS011;65538;50.798;6.064;2024-01-27T08:57:02;9.53;;;2.10;;
76640;SDS011;65538;50.798;6.064;2024-01-27T08:59:27;17.83;;;2.33;;
76640;SDS011;65538;50.798;6.064;2024-01-27T09:01:52;8.67;;;1.80;;
76640;SDS011;65538;50.798;6.064;2024-01-27T09:04:17;6.77;;;1.90;;
76640;SDS011;65538;50.798;6.064;2024-01-27T09:06:43;6.70;;;2.00;;
76640;SDS011;65538;50.798;6.064;2024-01-27T09:09:08;5.63;;;1.57;;
76640;SDS011;65538;50.798;6.064;2024-01-27T09:11:33;6.03;;;1.10;;
76640;SDS011;65538;50.798;6.064;2024-01-27T09:13:59;13.32;;;1.92;;
76640;SDS011;65538;50.798;6.064;2024-01-27T09:16:24;9.70;;;1.27;;
76640;SDS011;65538;50.798;6.064;2024-01-27T09:18:49;13.20;;;2.57;;
76640;SDS011;65538;50.798;6.064;2024-01-27T09:21:18;4.20;;;1.00;;
76640;SDS011;65538;50.798;6.064;2024-01-27T09:23:45;6.50;;;1.20;;
76640;SDS011;65538;50.798;6.064;2024-01-27T09:26:11;8.05;;;1.52;;
76640;SDS011;65538;50.798;6.064;2024-01-27T09:28:38;3.22;;;1.05;;
76640;SDS011;65538;50.798;6.064;2024-01-27T09:31:03;5.15;;;1.55;;
76640;SDS011;65538;50.798;6.064;2024-01-27T09:33:29;13.07;;;2.17;;
76640;SDS011;65538;50.798;6.064;2024-01-27T09:35:54;10.32;;;2.10;;
76640;SDS011;65538;50.798;6.064;2024-01-27T09:38:19;7.33;;;1.23;;
76640;SDS011;65538;50.798;6.064;2024-01-27T09:40:45;7.83;;;1.33;;
76640;SDS011;65538;50.798;6.064;2024-01-27T09:43:12;6.68;;;1.38;;
76640;SDS011;65538;50.798;6.064;2024-01-27T09:45:38;8.35;;;1.63;;
76640;SDS011;65538;50.798;6.064;2024-01-27T09:48:03;7.07;;;1.70;;
76640;SDS011;65538;50.798;6.064;2024-01-27T09:50:30;7.25;;;1.27;;
76640;SDS011;65538;50.798;6.064;2024-01-27T09:52:55;9.10;;;1.57;;
76640;SDS011;65538;50.798;6.064;2024-01-27T09:55:21;6.33;;;1.50;;
76640;SDS011;65538;50.798;6.064;2024-01-27T09:57:46;4.45;;;1.30;;
76640;SDS011;65538;50.798;6.064;2024-01-27T10:00:11;6.43;;;2.13;;
76640;SDS011;65538;50.798;6.064;2024-01-27T10:02:40;2.88;;;0.98;;
76640;SDS011;65538;50.798;6.064;2024-01-27T10:05:07;10.60;;;2.17;;
76640;SDS011;65538;50.798;6.064;2024-01-27T10:07:33;7.28;;;1.35;;
76640;SDS011;65538;50.798;6.064;2024-01-27T10:09:58;11.17;;;2.00;;
76640;SDS011;65538;50.798;6.064;2024-01-27T10:12:23;8.50;;;1.73;;
76640;SDS011;65538;50.798;6.064;2024-01-27T10:14:49;9.30;;;1.77;;
76640;SDS011;65538;50.798;6.064;2024-01-27T10:17:20;9.35;;;1.85;;
76640;SDS011;65538;50.798;6.064;2024-01-27T10:19:47;3.85;;;1.25;;
76640;SDS011;65538;50.798;6.064;2024-01-27T10:22:12;10.10;;;2.00;;
76640;SDS011;65538;50.798;6.064;2024-01-27T10:24:37;8.10;;;1.57;;
76640;SDS011;65538;50.798;6.064;2024-01-27T10:27:02;11.10;;;1.73;;
76640;SDS011;65538;50.798;6.064;2024-01-27T10:29:28;10.98;;;1.77;;
76640;SDS011;65538;50.798;6.064;2024-01-27T10:31:53;13.68;;;1.80;;
76640;SDS011;65538;50.798;6.064;2024-01-27T10:34:21;12.10;;;2.17;;
76640;SDS011;65538;50.798;6.064;2024-01-27T10:36:47;6.05;;;1.75;;
76640;SDS011;65538;50.798;6.064;2024-01-27T10:39:21;7.60;;;1.83;;
76640;SDS011;65538;50.798;6.064;2024-01-27T10:41:47;5.20;;;1.45;;
76640;SDS011;65538;50.798;6.064;2024-01-27T10:44:13;4.80;;;1.10;;
76640;SDS011;65538;50.798;6.064;2024-01-27T10:46:39;7.70;;;1.92;;
76640;SDS011;65538;50.798;6.064;2024-01-27T10:49:04;7.72;;;3.00;;
76640;SDS011;65538;50.798;6.064;2024-01-27T10:51:31;7.03;;;1.48;;
76640;SDS011;65538;50.798;6.064;2024-01-27T10:54:03;7.80;;;1.88;;
76640;SDS011;65538;50.798;6.064;2024-01-27T10:56:32;6.95;;;1.67;;
76640;SDS011;65538;50.798;6.064;2024-01-27T11:01:23;5.97;;;1.23;;
76640;SDS011;65538;50.798;6.064;2024-01-27T11:03:49;6.88;;;1.30;;
76640;SDS011;65538;50.798;6.064;2024-01-27T11:06:14;6.95;;;1.85;;
76640;SDS011;65538;50.798;6.064;2024-01-27T11:08:40;11.23;;;2.65;;
76640;SDS011;65538;50.798;6.064;2024-01-27T11:11:06;10.87;;;2.20;;
76640;SDS011;65538;50.798;6.064;2024-01-27T11:13:31;5.40;;;1.58;;
76640;SDS011;65538;50.798;6.064;2024-01-27T11:15:57;7.28;;;2.53;;
76640;SDS011;65538;50.798;6.064;2024-01-27T11:18:23;9.57;;;2.22;;
76640;SDS011;65538;50.798;6.064;2024-01-27T11:20:52;5.50;;;1.73;;
76640;SDS011;65538;50.798;6.064;2024-01-27T11:23:17;10.50;;;1.67;;
76640;SDS011;65538;50.798;6.064;2024-01-27T11:25:42;6.60;;;1.70;;
76640;SDS011;65538;50.798;6.064;2024-01-27T11:28:11;7.80;;;1.47;;
76640;SDS011;65538;50.798;6.064;2024-01-27T11:30:38;9.05;;;1.90;;
76640;SDS011;65538;50.798;6.064;2024-01-27T11:33:05;12.18;;;1.75;;
76640;SDS011;65538;50.798;6.064;2024-01-27T11:35:30;5.90;;;1.25;;
76640;SDS011;65538;50.798;6.064;2024-01-27T11:37:55;7.17;;;1.23;;
76640;SDS011;65538;50.798;6.064;2024-01-27T11:40:20;11.77;;;1.63;;
76640;SDS011;65538;50.798;6.064;2024-01-27T11:42:59;7.43;;;1.52;;
76640;SDS011;65538;50.798;6.064;2024-01-27T11:45:24;5.55;;;1.52;;
76640;SDS011;65538;50.798;6.064;2024-01-27T11:47:49;3.77;;;1.00;;
76640;SDS011;65538;50.798;6.064;2024-01-27T11:50:16;4.75;;;1.20;;
76640;SDS011;65538;50.798;6.064;2024-01-27T11:52:42;5.55;;;1.65;;
76640;SDS011;65538;50.798;6.064;2024-01-27T11:55:08;3.95;;;1.05;;
76640;SDS011;65538;50.798;6.064;2024-01-27T11:57:33;7.33;;;1.37;;
76640;SDS011;65538;50.798;6.064;2024-01-27T11:59:58;4.00;;;0.93;;
76640;SDS011;65538;50.798;6.064;2024-01-27T12:02:23;4.63;;;1.30;;
76640;SDS011;65538;50.798;6.064;2024-01-27T12:04:48;3.67;;;1.00;;
76640;SDS011;65538;50.798;6.064;2024-01-27T12:07:14;6.78;;;1.25;;
76640;SDS011;65538;50.798;6.064;2024-01-27T12:09:40;11.20;;;1.80;;
76640;SDS011;65538;50.798;6.064;2024-01-27T12:12:05;8.07;;;1.33;;
76640;SDS011;65538;50.798;6.064;2024-01-27T12:14:37;8.68;;;1.40;;
76640;SDS011;65538;50.798;6.064;2024-01-27T12:17:03;4.80;;;1.23;;
76640;SDS011;65538;50.798;6.064;2024-01-27T12:19:28;5.10;;;1.23;;
76640;SDS011;65538;50.798;6.064;2024-01-27T12:21:53;6.27;;;1.30;;
76640;SDS011;65538;50.798;6.064;2024-01-27T12:24:19;8.00;;;1.90;;
76640;SDS011;65538;50.798;6.064;2024-01-27T12:26:44;3.75;;;1.02;;
76640;SDS011;65538;50.798;6.064;2024-01-27T12:29:12;7.75;;;1.30;;
76640;SDS011;65538;50.798;6.064;2024-01-27T12:31:38;5.03;;;1.90;;
76640;SDS011;65538;50.798;6.064;2024-01-27T12:34:03;11.17;;;1.70;;
76640;SDS011;65538;50.798;6.064;2024-01-27T12:36:28;6.47;;;1.50;;
76640;SDS011;65538;50.798;6.064;2024-01-27T12:38:57;9.17;;;1.57;;
76640;SDS011;65538;50.798;6.064;2024-01-27T12:41:23;9.05;;;1.80;;
76640;SDS011;65538;50.798;6.064;2024-01-27T12:43:49;6.68;;;1.05;;
76640;SDS011;65538;50.798;6.064;2024-01-27T12:46:14;9.07;;;1.52;;
76640;SDS011;65538;50.798;6.064;2024-01-27T12:48:40;4.75;;;1.20;;
76640;SDS011;65538;50.798;6.064;2024-01-27T12:51:05;10.33;;;1.67;;
76640;SDS011;65538;50.798;6.064;2024-01-27T12:53:30;6.50;;;1.30;;
76640;SDS011;65538;50.798;6.064;2024-01-27T12:55:55;5.43;;;1.77;;
76640;SDS011;65538;50.798;6.064;2024-01-27T12:58:21;4.93;;;1.47;;
76640;SDS011;65538;50.798;6.064;2024-01-27T13:00:46;5.03;;;1.15;;
76640;SDS011;65538;50.798;6.064;2024-01-27T13:03:11;10.00;;;1.50;;
76640;SDS011;65538;50.798;6.064;2024-01-27T13:05:36;5.10;;;1.40;;
76640;SDS011;65538;50.798;6.064;2024-01-27T13:08:03;3.95;;;1.40;;
76640;SDS011;65538;50.798;6.064;2024-01-27T13:10:29;9.27;;;1.67;;
76640;SDS011;65538;50.798;6.064;2024-01-27T13:12:54;5.15;;;1.30;;
76640;SDS011;65538;50.798;6.064;2024-01-27T13:15:20;7.05;;;1.63;;
76640;SDS011;65538;50.798;6.064;2024-01-27T13:17:47;7.05;;;1.77;;
76640;SDS011;65538;50.798;6.064;2024-01-27T13:20:12;5.87;;;1.67;;
76640;SDS011;65538;50.798;6.064;2024-01-27T13:22:38;7.40;;;1.40;;
76640;SDS011;65538;50.798;6.064;2024-01-27T13:25:03;5.83;;;1.47;;
76640;SDS011;65538;50.798;6.064;2024-01-27T13:27:30;7.70;;;1.83;;
76640;SDS011;65538;50.798;6.064;2024-01-27T13:29:55;5.47;;;1.57;;
76640;SDS011;65538;50.798;6.064;2024-01-27T13:32:21;6.43;;;1.67;;
76640;SDS011;65538;50.798;6.064;2024-01-27T13:34:46;5.03;;;1.10;;
76640;SDS011;65538;50.798;6.064;2024-01-27T13:37:12;7.60;;;2.00;;
76640;SDS011;65538;50.798;6.064;2024-01-27T13:39:37;7.73;;;1.83;;
76640;SDS011;65538;50.798;6.064;2024-01-27T13:42:03;8.93;;;1.83;;
76640;SDS011;65538;50.798;6.064;2024-01-27T13:44:28;6.20;;;1.50;;
76640;SDS011;65538;50.798;6.064;2024-01-27T13:46:55;5.78;;;1.67;;
76640;SDS011;65538;50.798;6.064;2024-01-27T13:49:25;7.25;;;1.55;;
76640;SDS011;65538;50.798;6.064;2024-01-27T13:51:50;7.83;;;1.80;;
76640;SDS011;65538;50.798;6.064;2024-01-27T13:54:15;11.20;;;1.90;;
76640;SDS011;65538;50.798;6.064;2024-01-27T13:56:41;11.32;;;2.20;;
76640;SDS011;65538;50.798;6.064;2024-01-27T13:59:06;5.30;;;1.73;;
76640;SDS011;65538;50.798;6.064;2024-01-27T14:01:32;6.78;;;1.65;;
76640;SDS011;65538;50.798;6.064;2024-01-27T14:03:58;5.38;;;1.50;;
76640;SDS011;65538;50.798;6.064;2024-01-27T14:06:23;6.23;;;1.57;;
76640;SDS011;65538;50.798;6.064;2024-01-27T14:08:48;4.80;;;1.50;;
76640;SDS011;65538;50.798;6.064;2024-01-27T14:11:13;7.03;;;1.10;;
76640;SDS011;65538;50.798;6.064;2024-01-27T14:13:40;8.82;;;1.90;;
76640;SDS011;65538;50.798;6.064;2024-01-27T14:16:06;5.97;;;1.50;;
76640;SDS011;65538;50.798;6.064;2024-01-27T14:18:31;9.17;;;2.10;;
76640;SDS011;65538;50.798;6.064;2024-01-27T14:20:56;6.47;;;1.70;;
76640;SDS011;65538;50.798;6.064;2024-01-27T14:23:22;8.40;;;1.53;;
76640;SDS011;65538;50.798;6.064;2024-01-27T14:25:47;5.90;;;1.43;;
76640;SDS011;65538;50.798;6.064;2024-01-27T14:28:12;5.13;;;1.20;;
76640;SDS011;65538;50.798;6.064;2024-01-27T14:30:38;9.40;;;1.88;;
76640;SDS011;65538;50.798;6.064;2024-01-27T14:33:04;10.20;;;2.17;;